Time;durP1;ratioP1;P1;durP2;ratioP2;P2;SDS_P1;SDS_P2;PMS_P1;PMS_P2;Temp;Humidity;BMP_temperature;BMP_pressure;BME280_temperature;BME280_humidity;BME280_pressure;Samples;Min_cycle;Max_cycle;Signal;HPM_P1;HPM_P2
2023/10/21 00:01:56;;;;;;;19.45;4.28;;;;;;;24.43;42.76;97840.16;4482665;32;34901;-63
2023/10/21 00:04:24;;;;;;;10.75;3.75;;;;;;;24.43;42.83;97831.13;4482874;32;33601;-64
2023/10/21 00:06:51;;;;;;;11.25;4.20;;;;;;;24.42;42.70;97826.78;4473337;32;34645;-63
2023/10/21 00:09:19;;;;;;;11.07;4.57;;;;;;;24.41;42.77;97828.69;4467430;32;33719;-63
2023/10/21 00:11:47;;;;;;;10.18;3.85;;;;;;;24.42;42.77;97832.22;4467053;32;34201;-64
2023/10/21 00:14:14;;;;;;;13.55;4.20;;;;;;;24.42;42.75;97840.41;4466769;32;34457;-64
2023/10/21 00:16:42;;;;;;;13.40;3.97;;;;;;;24.42;42.69;97832.22;4466651;32;33818;-64
2023/10/21 00:19:10;;;;;;;13.85;4.93;;;;;;;24.40;42.76;97839.88;4466883;32;34031;-63
2023/10/21 00:21:39;;;;;;;13.68;4.40;;;;;;;24.40;42.78;97848.88;4466895;32;34940;-63
2023/10/21 00:24:06;;;;;;;14.87;4.62;;;;;;;24.42;42.91;97854.03;4466920;32;33672;-63
2023/10/21 00:26:46;;;;;;;13.95;4.70;;;;;;;24.42;42.94;97851.31;4466873;32;33717;-64
2023/10/21 00:29:14;;;;;;;13.43;4.20;;;;;;;24.41;42.94;97847.78;4469115;32;34109;-63
2023/10/21 00:31:43;;;;;;;9.98;3.70;;;;;;;24.42;42.93;97834.97;4469173;32;34320;-63
2023/10/21 00:34:10;;;;;;;11.48;4.60;;;;;;;24.40;42.90;97848.88;4468797;32;34374;-63
2023/10/21 00:36:38;;;;;;;10.77;4.05;;;;;;;24.39;42.90;97846.44;4468775;32;34730;-64
2023/10/21 00:39:12;;;;;;;12.75;4.40;;;;;;;24.39;42.85;97835.53;4469028;32;34653;-63
2023/10/21 00:41:40;;;;;;;9.05;4.43;;;;;;;24.39;42.91;97835.53;4467533;32;34009;-63
2023/10/21 00:44:08;;;;;;;15.10;4.87;;;;;;;24.39;42.96;97849.16;4469154;32;33706;-64
2023/10/21 00:46:36;;;;;;;11.10;4.35;;;;;;;24.39;43.03;97857.34;4468859;32;33782;-64
2023/10/21 00:49:04;;;;;;;10.57;3.75;;;;;;;24.38;42.96;97853.78;4468705;32;33985;-64
2023/10/21 00:51:33;;;;;;;7.40;3.67;;;;;;;24.38;42.98;97858.41;4481974;32;34013;-64
2023/10/21 00:54:01;;;;;;;13.43;4.28;;;;;;;24.38;42.95;97853.78;4484615;32;34290;-64
2023/10/21 00:56:29;;;;;;;11.63;4.07;;;;;;;24.38;42.90;97864.69;4484424;32;33437;-65
2023/10/21 00:58:56;;;;;;;11.35;4.37;;;;;;;24.39;42.95;97876.44;4470585;32;33704;-64
2023/10/21 01:01:24;;;;;;;12.82;4.18;;;;;;;24.38;43.02;97874.78;4484571;32;34920;-65
2023/10/21 01:03:51;;;;;;;12.75;4.65;;;;;;;24.39;43.06;97881.87;4484652;32;34338;-65
2023/10/21 01:06:20;;;;;;;11.07;4.43;;;;;;;24.38;43.11;97875.59;4463969;32;33475;-64
2023/10/21 01:08:47;;;;;;;11.43;4.05;;;;;;;24.38;43.04;97874.78;4484753;32;33752;-65
2023/10/21 01:11:15;;;;;;;9.30;3.62;;;;;;;24.38;42.98;97880.22;4470567;32;34058;-64
2023/10/21 01:13:43;;;;;;;9.80;4.60;;;;;;;24.38;43.00;97875.59;4470183;32;33190;-64
2023/10/21 01:16:11;;;;;;;8.82;3.92;;;;;;;24.38;43.01;97874.78;4484425;32;33991;-66
2023/10/21 01:18:39;;;;;;;8.77;3.80;;;;;;;24.37;43.02;97873.16;4470608;32;33882;-65
2023/10/21 01:21:08;;;;;;;9.07;3.70;;;;;;;24.38;43.01;97875.59;4457751;32;33612;-65
2023/10/21 01:23:36;;;;;;;11.90;4.15;;;;;;;24.37;43.08;97865.78;4484560;32;34242;-65
2023/10/21 01:26:04;;;;;;;10.88;4.00;;;;;;;24.37;43.14;97882.13;4470291;32;34640;-66
2023/10/21 01:28:32;;;;;;;11.12;4.72;;;;;;;24.37;43.03;97878.59;4470285;32;34625;-64
2023/10/21 01:31:00;;;;;;;9.82;3.75;;;;;;;24.38;43.08;97882.94;4469834;32;34738;-64
2023/10/21 01:33:27;;;;;;;11.52;4.55;;;;;;;24.36;43.10;97877.78;4484028;32;33591;-64
2023/10/21 01:35:56;;;;;;;12.57;4.30;;;;;;;24.37;43.11;97879.41;4484088;32;33865;-64
2023/10/21 01:38:24;;;;;;;9.05;4.15;;;;;;;24.37;43.08;97893.03;4469410;32;34051;-64
2023/10/21 01:40:52;;;;;;;12.05;3.53;;;;;;;24.37;43.09;97887.59;4483587;32;33818;-65
2023/10/21 01:43:20;;;;;;;9.88;3.95;;;;;;;24.39;43.13;97884.59;4470319;32;34481;-64
2023/10/21 01:45:48;;;;;;;10.50;4.37;;;;;;;24.37;43.17;97881.31;4457172;32;32861;-64
2023/10/21 01:48:16;;;;;;;12.18;4.10;;;;;;;24.38;43.15;97869.31;4484085;32;34776;-64
2023/10/21 01:50:44;;;;;;;8.77;3.70;;;;;;;24.38;43.17;97870.12;4484089;32;34167;-64
2023/10/21 01:53:12;;;;;;;9.32;4.05;;;;;;;24.36;43.24;97877.78;4484226;32;33475;-64
2023/10/21 01:55:39;;;;;;;10.68;4.15;;;;;;;24.37;43.21;97887.59;4484147;32;34711;-64
2023/10/21 01:58:07;;;;;;;9.02;3.67;;;;;;;24.37;43.24;97901.22;4469927;32;34401;-64
2023/10/21 02:00:35;;;;;;;8.80;4.00;;;;;;;24.37;43.19;97884.84;4484071;32;34584;-64
2023/10/21 02:03:03;;;;;;;9.65;3.30;;;;;;;24.37;43.24;97900.41;4484141;32;34344;-64
2023/10/21 02:05:31;;;;;;;8.10;3.10;;;;;;;24.37;43.06;97893.03;4482949;32;33849;-64
2023/10/21 02:07:58;;;;;;;9.38;4.00;;;;;;;24.39;43.05;97918.13;4484213;32;34668;-64
2023/10/21 02:10:26;;;;;;;11.10;3.75;;;;;;;24.38;42.90;97912.94;4469929;32;34954;-64
2023/10/21 02:12:54;;;;;;;8.38;3.97;;;;;;;24.37;42.99;97923.03;4469754;32;33675;-63
2023/10/21 02:15:21;;;;;;;8.93;4.05;;;;;;;24.37;42.97;97930.38;4484059;32;33957;-64
2023/10/21 02:17:49;;;;;;;9.90;4.22;;;;;;;24.39;42.97;97930.94;4483835;32;33705;-64
2023/10/21 02:20:17;;;;;;;9.65;3.70;;;;;;;24.37;43.06;97931.19;4484062;32;33871;-65
2023/10/21 02:22:45;;;;;;;9.18;3.35;;;;;;;24.38;43.01;97946.44;4484077;32;34115;-64
2023/10/21 02:25:13;;;;;;;10.45;3.83;;;;;;;24.39;42.95;97948.13;4484023;32;33712;-64
2023/10/21 02:27:42;;;;;;;9.52;3.60;;;;;;;24.38;43.01;97962.81;4484053;32;34615;-64
2023/10/21 02:30:13;;;;;;;8.50;3.20;;;;;;;24.39;42.96;97969.09;4468180;32;34643;-63
2023/10/21 02:32:45;;;;;;;10.52;4.00;;;;;;;24.38;43.09;97967.44;4469468;32;34243;-64
2023/10/21 02:35:14;;;;;;;10.40;3.72;;;;;;;24.38;43.08;97962.81;4483941;32;34361;-63
2023/10/21 02:37:42;;;;;;;9.35;4.40;;;;;;;24.38;43.15;97962.81;4469755;32;34635;-64
2023/10/21 02:40:15;;;;;;;10.02;4.53;;;;;;;24.38;43.18;97948.38;4468221;32;34093;-65
2023/10/21 02:42:44;;;;;;;8.40;4.03;;;;;;;24.44;43.13;97944.56;4470383;32;34487;-65
2023/10/21 02:45:12;;;;;;;10.68;4.35;;;;;;;24.42;43.20;97961.16;4455819;32;33508;-65
2023/10/21 02:47:39;;;;;;;6.85;3.47;;;;;;;24.40;43.18;97954.38;4441523;32;34657;-66
2023/10/21 02:50:08;;;;;;;8.50;3.72;;;;;;;24.39;43.02;97952.75;4467877;32;34193;-64
2023/10/21 02:52:37;;;;;;;10.30;3.55;;;;;;;24.39;43.06;97944.56;4468024;32;33525;-64
2023/10/21 02:55:06;;;;;;;12.85;4.20;;;;;;;24.38;43.19;97960.09;4468897;32;34392;-65
2023/10/21 02:57:34;;;;;;;13.07;3.67;;;;;;;24.40;43.19;97954.38;4468119;32;33886;-63
2023/10/21 03:00:04;;;;;;;13.52;4.07;;;;;;;24.38;43.26;97956.53;4471344;32;34142;-64
2023/10/21 03:02:33;;;;;;;9.50;4.00;;;;;;;24.42;43.25;97952.19;4483773;32;33717;-65
2023/10/21 03:05:00;;;;;;;9.80;3.58;;;;;;;24.43;43.18;97959.25;4483363;32;33367;-64
2023/10/21 03:07:28;;;;;;;9.75;3.72;;;;;;;24.39;43.18;97966.37;4483584;32;33703;-64
2023/10/21 03:09:56;;;;;;;11.23;3.87;;;;;;;24.37;43.16;97974.00;4480312;32;33892;-65
2023/10/21 03:12:23;;;;;;;10.10;3.72;;;;;;;24.36;43.14;97978.63;4466693;32;33401;-64
2023/10/21 03:14:51;;;;;;;7.93;4.60;;;;;;;24.37;43.20;97968.53;4467933;32;34031;-63
2023/10/21 03:17:19;;;;;;;9.02;4.00;;;;;;;24.35;43.26;97966.06;4467986;32;34013;-65
2023/10/21 03:19:47;;;;;;;8.98;3.92;;;;;;;24.35;43.24;97981.63;4467756;32;34284;-66
2023/10/21 03:22:14;;;;;;;8.95;3.70;;;;;;;24.36;43.17;97996.87;4467869;32;33499;-65
2023/10/21 03:24:42;;;;;;;6.72;3.42;;;;;;;24.36;43.25;97985.97;4481903;32;34041;-65
2023/10/21 03:27:10;;;;;;;12.20;4.20;;;;;;;24.36;43.24;97972.34;4469591;32;34005;-64
2023/10/21 03:29:38;;;;;;;9.95;4.03;;;;;;;24.36;43.23;97975.06;4483446;32;34316;-64
2023/10/21 03:32:06;;;;;;;11.00;3.80;;;;;;;24.36;43.25;97975.91;4469087;32;32160;-64
2023/10/21 03:34:34;;;;;;;10.13;4.32;;;;;;;24.39;43.23;97985.47;4469144;32;33874;-64
2023/10/21 03:37:02;;;;;;;10.65;3.90;;;;;;;24.37;43.24;97982.19;4483059;32;34812;-64
2023/10/21 03:39:31;;;;;;;8.32;3.05;;;;;;;24.38;43.25;97983.81;4468628;32;34788;-64
2023/10/21 03:41:59;;;;;;;7.45;3.42;;;;;;;24.41;43.21;97984.06;4471066;32;33260;-64
2023/10/21 03:44:27;;;;;;;10.93;3.28;;;;;;;24.39;43.22;97988.19;4483109;32;33423;-65
2023/10/21 03:46:54;;;;;;;9.43;3.40;;;;;;;24.41;43.23;97988.72;4482931;32;34831;-65
2023/10/21 03:49:22;;;;;;;12.55;3.75;;;;;;;24.37;43.24;97996.63;4483170;32;33874;-64
2023/10/21 03:51:49;;;;;;;8.48;3.80;;;;;;;24.45;43.20;97997.16;4482846;32;33566;-64
2023/10/21 03:54:17;;;;;;;7.30;3.58;;;;;;;24.44;43.17;98004.53;4483089;32;34604;-64
2023/10/21 03:56:44;;;;;;;13.32;4.03;;;;;;;24.42;43.23;98023.88;4482572;32;33719;-66
2023/10/21 03:59:12;;;;;;;11.10;4.57;;;;;;;24.37;43.18;98026.59;4483095;32;34850;-66
2023/10/21 04:01:40;;;;;;;10.23;4.25;;;;;;;24.38;43.25;98050.03;4482987;32;34507;-66
2023/10/21 04:04:07;;;;;;;14.57;3.62;;;;;;;24.36;43.29;98037.75;4484826;32;34897;-63
2023/10/21 04:06:35;;;;;;;11.45;4.22;;;;;;;24.36;43.38;98048.66;4484991;32;33784;-65
2023/10/21 04:09:03;;;;;;;10.50;3.78;;;;;;;24.36;43.37;98059.56;4484985;32;34188;-66
2023/10/21 04:11:31;;;;;;;9.07;3.37;;;;;;;24.39;43.32;98053.59;4484172;32;33426;-65
2023/10/21 04:13:58;;;;;;;7.60;3.78;;;;;;;24.38;43.34;98054.69;4485014;32;33966;-66
2023/10/21 04:16:26;;;;;;;11.60;3.83;;;;;;;24.46;43.26;98058.75;4484831;32;33736;-64
2023/10/21 04:18:53;;;;;;;10.38;3.25;;;;;;;24.47;43.21;98063.94;4484497;32;34125;-65
2023/10/21 04:21:21;;;;;;;6.55;3.58;;;;;;;24.49;43.21;98071.84;4485120;32;33763;-65
2023/10/21 04:23:49;;;;;;;7.57;3.62;;;;;;;24.45;43.17;98068.84;4484862;32;34577;-64
2023/10/21 04:26:17;;;;;;;12.60;3.72;;;;;;;24.49;43.23;98078.13;4484589;32;34063;-65
2023/10/21 04:28:49;;;;;;;10.60;3.62;;;;;;;24.46;43.33;98084.12;4484771;32;34516;-65
2023/10/21 04:31:16;;;;;;;11.27;3.73;;;;;;;24.49;43.27;98083.56;4484869;32;33664;-64
2023/10/21 04:33:45;;;;;;;7.35;3.30;;;;;;;24.52;43.20;98088.47;4484860;32;34582;-64
2023/10/21 04:36:18;;;;;;;8.27;3.78;;;;;;;24.51;43.31;98081.37;4484721;32;34681;-63
2023/10/21 04:38:46;;;;;;;8.60;3.90;;;;;;;24.44;43.38;98083.59;4484661;32;34310;-63
2023/10/21 04:41:13;;;;;;;6.82;3.25;;;;;;;24.45;43.38;98101.56;4471649;32;34434;-64
2023/10/21 04:43:41;;;;;;;9.48;3.60;;;;;;;24.45;43.38;98107.03;4469121;32;33876;-64
2023/10/21 04:46:09;;;;;;;8.15;4.05;;;;;;;24.42;43.51;98110.28;4469009;32;33512;-64
2023/10/21 04:48:36;;;;;;;11.00;4.30;;;;;;;24.46;43.49;98116.00;4469047;32;34523;-64
2023/10/21 04:51:04;;;;;;;6.65;3.67;;;;;;;24.47;43.55;98120.38;4454777;32;35075;-64
2023/10/21 04:53:32;;;;;;;15.43;4.07;;;;;;;24.43;43.66;98125.53;4468965;32;33885;-64
2023/10/21 04:55:59;;;;;;;12.35;3.55;;;;;;;24.41;43.69;98128.56;4469212;32;33654;-65
2023/10/21 04:58:27;;;;;;;8.93;3.30;;;;;;;24.44;43.62;98154.47;4468897;32;34085;-65
2023/10/21 05:00:55;;;;;;;7.40;3.12;;;;;;;24.37;43.69;98148.47;4479756;32;33681;-65
2023/10/21 05:03:22;;;;;;;8.93;3.53;;;;;;;24.37;43.77;98156.63;4484716;32;33635;-64
2023/10/21 05:05:50;;;;;;;8.13;3.40;;;;;;;24.36;43.80;98160.44;4484298;32;34013;-65
2023/10/21 05:08:18;;;;;;;7.15;3.22;;;;;;;24.38;43.84;98155.53;4484390;32;34854;-64
2023/10/21 05:10:45;;;;;;;8.32;3.37;;;;;;;24.37;43.84;98148.47;4477353;32;33780;-64
2023/10/21 05:13:13;;;;;;;11.05;3.95;;;;;;;24.35;43.85;98139.72;4468613;32;33163;-64
2023/10/21 05:15:41;;;;;;;8.82;3.62;;;;;;;24.36;43.89;98133.16;4468655;32;33639;-65
2023/10/21 05:18:08;;;;;;;11.52;3.45;;;;;;;24.38;43.83;98125.56;4468706;32;34059;-65
2023/10/21 05:20:37;;;;;;;8.52;3.42;;;;;;;24.36;43.95;98116.81;4468684;32;33698;-64
2023/10/21 05:23:04;;;;;;;10.57;4.12;;;;;;;24.39;43.87;98119.84;4468871;32;33520;-65
2023/10/21 05:25:32;;;;;;;8.48;3.37;;;;;;;24.39;43.91;98129.94;4468719;32;33632;-64
2023/10/21 05:27:59;;;;;;;8.23;3.47;;;;;;;24.38;43.84;98128.28;4468823;32;34874;-63
2023/10/21 05:30:27;;;;;;;13.45;4.32;;;;;;;24.37;43.94;98096.66;4454418;32;33567;-63
2023/10/21 05:32:55;;;;;;;7.37;3.10;;;;;;;24.36;44.12;98103.19;4462229;32;33972;-63
2023/10/21 05:35:23;;;;;;;11.18;3.60;;;;;;;24.36;44.09;98111.34;4461090;32;34885;-63
2023/10/21 05:37:51;;;;;;;9.52;3.50;;;;;;;24.37;44.03;98113.03;4459323;32;33844;-63
2023/10/21 05:40:18;;;;;;;11.15;4.18;;;;;;;24.37;44.02;98110.28;4484268;32;33631;-63
2023/10/21 05:42:45;;;;;;;10.50;3.53;;;;;;;24.37;43.93;98107.56;4469914;32;32772;-64
2023/10/21 05:45:13;;;;;;;10.38;3.60;;;;;;;24.37;43.98;98105.66;4474567;32;34943;-63
2023/10/21 05:47:41;;;;;;;9.32;3.00;;;;;;;24.37;43.97;98113.03;4467295;32;34856;-64
2023/10/21 05:50:12;;;;;;;10.73;3.17;;;;;;;24.36;43.94;98123.09;4454418;32;33432;-65
2023/10/21 05:52:39;;;;;;;8.88;3.17;;;;;;;24.38;43.92;98141.91;4467737;32;34742;-64
2023/10/21 05:55:07;;;;;;;7.75;2.97;;;;;;;24.39;43.90;98149.03;4473958;32;33896;-63
2023/10/21 05:57:35;;;;;;;10.20;3.20;;;;;;;24.38;43.88;98150.91;4483894;32;34744;-64
2023/10/21 06:00:07;;;;;;;6.93;3.03;;;;;;;24.39;43.88;98162.66;4478842;32;33164;-65
2023/10/21 06:02:37;;;;;;;7.07;3.05;;;;;;;24.40;43.83;98177.91;4468474;32;34632;-64
2023/10/21 06:05:05;;;;;;;7.85;2.83;;;;;;;24.42;43.75;98181.16;4467113;32;33725;-64
2023/10/21 06:07:33;;;;;;;6.93;3.12;;;;;;;24.42;43.80;98205.69;4468075;32;34837;-64
2023/10/21 06:10:01;;;;;;;9.15;3.03;;;;;;;24.41;43.79;98217.72;4468522;32;33732;-64
2023/10/21 06:12:29;;;;;;;10.30;3.25;;;;;;;24.40;43.77;98226.97;4483909;32;33818;-65
2023/10/21 06:14:56;;;;;;;9.15;2.95;;;;;;;24.39;43.75;98225.34;4483764;32;34278;-63
2023/10/21 06:17:24;;;;;;;7.05;3.30;;;;;;;24.39;43.77;98241.72;4483813;32;34206;-63
2023/10/21 06:19:52;;;;;;;11.48;3.92;;;;;;;24.39;43.77;98249.88;4484144;32;33326;-64
2023/10/21 06:22:23;;;;;;;8.27;3.30;;;;;;;24.39;43.75;98241.72;4457932;32;33779;-63
2023/10/21 06:24:53;;;;;;;5.75;3.05;;;;;;;24.39;43.65;98234.34;4479890;32;33898;-63
2023/10/21 06:27:21;;;;;;;6.35;3.15;;;;;;;24.39;43.64;98256.16;4467969;32;34380;-65
2023/10/21 06:29:49;;;;;;;10.82;3.20;;;;;;;24.39;43.65;98266.25;4474481;32;33371;-64
2023/10/21 06:32:17;;;;;;;6.57;2.78;;;;;;;24.40;43.73;98267.88;4476023;32;33361;-65
2023/10/21 06:34:45;;;;;;;6.28;2.80;;;;;;;24.40;43.53;98267.88;4477001;32;33951;-63
2023/10/21 06:37:32;;;;;;;7.95;3.20;;;;;;;24.38;43.63;98270.84;4475674;32;34923;-64
2023/10/21 06:40:00;;;;;;;7.80;3.03;;;;;;;24.38;43.58;98280.94;4474202;32;33670;-63
2023/10/21 06:42:28;;;;;;;7.15;3.10;;;;;;;24.38;43.49;98287.19;4475844;32;33855;-64
2023/10/21 06:44:55;;;;;;;7.65;3.33;;;;;;;24.39;43.58;98288.06;4474640;32;34032;-63
2023/10/21 06:47:23;;;;;;;5.35;2.75;;;;;;;24.38;43.63;98287.19;4466248;32;34686;-63
2023/10/21 06:49:51;;;;;;;7.62;3.47;;;;;;;24.38;43.63;98289.13;4467996;32;33485;-64
2023/10/21 06:52:20;;;;;;;7.45;3.12;;;;;;;24.38;43.58;98298.09;4464696;32;33627;-64
2023/10/21 06:54:51;;;;;;;6.43;2.90;;;;;;;24.38;43.61;98295.38;4452281;32;33661;-65
2023/10/21 06:57:22;;;;;;;6.12;2.75;;;;;;;24.40;43.61;98308.75;4466785;32;34501;-64
2023/10/21 06:59:52;;;;;;;7.87;3.40;;;;;;;24.40;43.55;98308.75;4452818;32;33110;-65
2023/10/21 07:02:19;;;;;;;8.77;3.12;;;;;;;24.39;43.58;98312.59;4466894;32;33796;-62
2023/10/21 07:04:47;;;;;;;6.70;2.75;;;;;;;24.39;43.57;98313.41;4463881;32;33773;-63
2023/10/21 07:07:15;;;;;;;7.68;3.25;;;;;;;24.38;43.47;98322.66;4450831;32;34923;-63
2023/10/21 07:09:44;;;;;;;5.80;2.90;;;;;;;24.39;43.57;98296.22;4451027;32;34271;-65
2023/10/21 07:12:12;;;;;;;5.18;2.62;;;;;;;24.38;43.46;98309.00;4451031;32;33433;-63
2023/10/21 07:14:40;;;;;;;8.90;3.25;;;;;;;24.39;43.47;98304.41;4450748;32;34042;-63
2023/10/21 07:17:08;;;;;;;9.77;3.58;;;;;;;24.39;43.57;98318.03;4449638;32;34141;-64
2023/10/21 07:19:35;;;;;;;6.43;2.58;;;;;;;24.39;43.48;98313.41;4460086;32;34446;-65
2023/10/21 07:22:04;;;;;;;6.45;2.33;;;;;;;24.39;43.41;98315.31;4465194;32;34668;-65
2023/10/21 07:24:32;;;;;;;9.18;2.78;;;;;;;24.39;43.47;98307.13;4466516;32;34022;-63
2023/10/21 07:27:01;;;;;;;6.37;2.70;;;;;;;24.40;43.50;98331.37;4466572;32;35351;-64
2023/10/21 07:29:29;;;;;;;8.30;2.87;;;;;;;24.42;43.62;98336.56;4466473;32;33385;-64
2023/10/21 07:31:56;;;;;;;7.40;2.85;;;;;;;24.48;43.65;98343.69;4466646;32;33846;-64
2023/10/21 07:34:24;;;;;;;6.43;3.05;;;;;;;24.46;43.72;98361.38;4466531;32;34006;-64
2023/10/21 07:36:52;;;;;;;15.75;3.55;;;;;;;24.45;43.82;98360.56;4465232;32;34723;-64
2023/10/21 07:39:19;;;;;;;11.88;2.95;;;;;;;24.48;44.04;98351.03;4452074;32;33738;-63
2023/10/21 07:41:47;;;;;;;10.50;3.42;;;;;;;24.48;44.05;98354.59;4466267;32;34641;-64
2023/10/21 07:44:15;;;;;;;10.63;2.87;;;;;;;24.48;44.13;98353.75;4466560;32;33436;-64
2023/10/21 07:46:46;;;;;;;10.60;3.83;;;;;;;24.45;44.41;98357.84;4466365;32;34087;-65
2023/10/21 07:49:13;;;;;;;7.85;3.03;;;;;;;24.45;44.37;98374.22;4466269;32;33347;-64
2023/10/21 07:51:41;;;;;;;6.87;3.03;;;;;;;24.45;44.46;98384.31;4478870;32;93265;-64
2023/10/21 07:54:08;;;;;;;11.73;3.83;;;;;;;24.43;44.34;98385.37;4483065;32;34739;-64
2023/10/21 07:56:37;;;;;;;8.00;2.90;;;;;;;24.43;44.33;98384.53;4482934;32;33753;-64
2023/10/21 07:59:05;;;;;;;8.77;2.78;;;;;;;24.44;44.37;98386.22;4483015;32;34391;-64
2023/10/21 08:01:33;;;;;;;11.25;3.30;;;;;;;24.45;44.44;98382.38;4482749;32;33483;-64
2023/10/21 08:04:01;;;;;;;10.85;2.87;;;;;;;24.48;44.59;98392.78;4481470;32;33870;-64
2023/10/21 08:06:30;;;;;;;10.18;3.20;;;;;;;24.49;44.58;98388.94;4482971;32;34368;-64
2023/10/21 08:08:57;;;;;;;9.60;2.97;;;;;;;24.52;44.78;98399.31;4482891;32;33497;-65
2023/10/21 08:11:25;;;;;;;9.57;2.35;;;;;;;24.55;44.85;98398.78;4482621;32;33867;-64
2023/10/21 08:13:53;;;;;;;11.30;3.70;;;;;;;24.55;44.88;98414.31;4482910;32;34651;-65
2023/10/21 08:16:24;;;;;;;9.18;3.00;;;;;;;24.51;44.88;98424.94;4482505;32;34207;-65
2023/10/21 08:18:51;;;;;;;5.78;2.37;;;;;;;24.49;45.05;98437.22;4482804;32;33766;-65
2023/10/21 08:21:19;;;;;;;12.02;3.47;;;;;;;24.47;45.31;98433.91;4482770;32;33898;-65
2023/10/21 08:23:46;;;;;;;7.57;3.20;;;;;;;24.46;45.31;98441.28;4482541;32;34794;-65
2023/10/21 08:26:15;;;;;;;10.20;2.92;;;;;;;24.44;45.32;98446.19;4482498;32;33808;-65
2023/10/21 08:28:43;;;;;;;12.68;3.35;;;;;;;24.45;45.25;98438.81;4482504;32;34357;-65
2023/10/21 08:31:10;;;;;;;9.10;2.95;;;;;;;24.45;45.23;98449.72;4481036;32;34698;-64
2023/10/21 08:33:38;;;;;;;8.48;2.60;;;;;;;24.45;45.07;98457.91;4482345;32;33565;-65
2023/10/21 08:36:14;;;;;;;10.10;2.60;;;;;;;24.44;44.92;98448.91;4481267;32;34036;-65
2023/10/21 08:38:42;;;;;;;9.63;2.75;;;;;;;24.45;45.10;98452.47;4482257;32;33656;-65
2023/10/21 08:41:11;;;;;;;7.53;2.50;;;;;;;24.44;45.04;98440.75;4482369;32;33635;-65
2023/10/21 08:43:47;;;;;;;10.02;2.75;;;;;;;24.44;45.00;98440.75;4481078;32;34632;-65
2023/10/21 08:46:16;;;;;;;15.00;3.08;;;;;;;24.43;45.00;98437.19;4480843;32;34168;-64
2023/10/21 08:48:47;;;;;;;8.18;2.97;;;;;;;24.42;45.03;98435.53;4483254;32;32580;-65
2023/10/21 08:51:20;;;;;;;6.97;2.55;;;;;;;24.42;44.98;98432.81;4484683;32;34644;-65
2023/10/21 08:53:49;;;;;;;7.62;2.85;;;;;;;24.43;45.05;98444.53;4483412;32;33757;-64
2023/10/21 08:56:17;;;;;;;9.68;2.60;;;;;;;24.43;45.10;98447.25;4481094;31;34189;-65
2023/10/21 08:58:46;;;;;;;6.65;2.17;;;;;;;24.43;44.98;98455.44;4467614;32;34340;-64
2023/10/21 09:01:16;;;;;;;7.53;2.97;;;;;;;24.42;44.94;98457.34;4480907;32;33852;-65
2023/10/21 09:03:44;;;;;;;7.40;2.12;;;;;;;24.43;44.89;98466.34;4484734;32;33908;-64
2023/10/21 09:06:11;;;;;;;10.07;2.80;;;;;;;24.43;45.01;98482.69;4482760;32;33904;-65
2023/10/21 09:08:40;;;;;;;8.70;2.53;;;;;;;24.45;45.10;98491.44;4484406;32;33700;-64
2023/10/21 09:11:10;;;;;;;11.02;3.58;;;;;;;24.49;45.19;98484.37;4483230;32;33204;-65
2023/10/21 09:13:39;;;;;;;7.78;2.50;;;;;;;24.49;45.21;98481.66;4484296;32;34252;-65
2023/10/21 09:16:24;;;;;;;10.13;2.50;;;;;;;24.48;45.29;98496.38;4484584;32;34351;-65
2023/10/21 09:18:55;;;;;;;6.50;2.20;;;;;;;24.52;45.33;98507.56;4467900;32;33652;-65
2023/10/21 09:21:36;;;;;;;8.40;2.72;;;;;;;24.52;45.46;98519.28;4477862;32;34532;-65
2023/10/21 09:24:11;;;;;;;8.07;2.83;;;;;;;24.52;45.48;98524.72;4483225;32;33981;-65
2023/10/21 09:26:43;;;;;;;9.98;2.55;;;;;;;24.50;45.46;98521.47;4484416;32;34067;-65
2023/10/21 09:29:16;;;;;;;9.98;3.17;;;;;;;24.51;45.47;98522.28;4482896;32;33172;-64
2023/10/21 09:31:44;;;;;;;9.32;2.20;;;;;;;24.51;45.42;98506.75;4481992;32;34232;-64
2023/10/21 09:34:29;;;;;;;7.90;2.53;;;;;;;24.53;45.34;98488.22;4484520;32;33935;-65
2023/10/21 09:37:04;;;;;;;7.18;2.08;;;;;;;24.55;45.23;98496.12;4484532;32;34196;-66
2023/10/21 09:39:36;;;;;;;7.60;2.47;;;;;;;24.55;45.35;98491.50;4484340;32;33658;-67
2023/10/21 09:42:05;;;;;;;5.10;2.33;;;;;;;24.53;45.38;98499.13;4483992;32;33701;-66
2023/10/21 09:44:38;;;;;;;6.97;2.15;;;;;;;24.50;45.45;98494.19;4483190;32;34730;-66
2023/10/21 09:47:06;;;;;;;9.68;2.90;;;;;;;24.50;45.48;98501.56;4483856;32;33897;-65
2023/10/21 09:49:39;;;;;;;9.55;2.05;;;;;;;24.50;45.52;98496.91;4470496;32;33181;-65
2023/10/21 09:52:10;;;;;;;13.50;2.20;;;;;;;24.51;45.44;98493.09;4483394;32;33873;-66
2023/10/21 09:54:42;;;;;;;5.85;1.85;;;;;;;24.50;45.52;98496.91;4484209;32;34907;-66
2023/10/21 09:57:13;;;;;;;6.05;2.33;;;;;;;24.52;45.44;98488.47;4467699;32;34069;-65
2023/10/21 09:59:41;;;;;;;7.50;2.80;;;;;;;24.51;45.39;98498.56;4466758;32;33742;-65
2023/10/21 10:02:12;;;;;;;7.50;1.87;;;;;;;24.50;45.41;98505.09;4468908;32;34809;-66
2023/10/21 10:04:40;;;;;;;7.07;2.45;;;;;;;24.48;45.15;98514.63;4473854;32;35044;-65
2023/10/21 10:07:08;;;;;;;8.45;2.20;;;;;;;24.46;45.12;98512.16;4470130;32;33202;-66
2023/10/21 10:09:42;;;;;;;6.65;1.95;;;;;;;24.47;45.17;98507.53;4483182;32;33590;-65
2023/10/21 10:12:16;;;;;;;8.77;2.37;;;;;;;24.47;45.42;98504.81;4483202;32;33857;-66
2023/10/21 10:14:45;;;;;;;7.85;2.72;;;;;;;24.46;45.67;98487.62;4469651;32;33970;-66
2023/10/21 10:17:13;;;;;;;9.00;2.12;;;;;;;24.47;45.59;98488.44;4472658;32;34529;-66
2023/10/21 10:19:42;;;;;;;8.88;2.50;;;;;;;24.46;45.49;98476.72;4469023;32;32359;-66
2023/10/21 10:22:17;;;;;;;6.80;2.17;;;;;;;24.45;45.64;98464.19;4484267;32;33611;-66
2023/10/21 10:24:50;;;;;;;5.10;2.05;;;;;;;24.46;45.61;98454.91;4483282;32;33907;-66
2023/10/21 10:27:18;;;;;;;7.07;2.10;;;;;;;24.45;45.80;98468.81;4483026;32;34107;-65
2023/10/21 10:29:49;;;;;;;8.55;2.40;;;;;;;24.45;45.66;98469.63;4484315;32;34388;-65
2023/10/21 10:32:17;;;;;;;6.70;2.40;;;;;;;24.44;45.69;98462.56;4484508;32;33696;-65
2023/10/21 10:34:55;;;;;;;4.82;2.15;;;;;;;24.46;45.66;98460.38;4484300;32;33791;-66
2023/10/21 10:37:36;;;;;;;8.23;1.98;;;;;;;24.49;45.56;98454.37;4483071;32;34263;-65
2023/10/21 10:40:17;;;;;;;7.37;2.50;;;;;;;24.50;45.54;98447.84;4479112;32;34701;-66
2023/10/21 10:42:44;;;;;;;8.45;2.30;;;;;;;24.52;45.54;98439.37;4483238;32;34029;-66
2023/10/21 10:45:12;;;;;;;9.00;2.28;;;;;;;24.50;45.52;98438.84;4469762;32;34804;-66
2023/10/21 10:47:40;;;;;;;9.52;2.30;;;;;;;24.47;45.41;98434.72;4483093;32;34067;-66
2023/10/21 10:50:16;;;;;;;5.03;2.08;;;;;;;24.46;45.46;98454.91;4483746;31;34066;-66
2023/10/21 10:52:46;;;;;;;8.07;2.10;;;;;;;24.45;45.66;98457.91;4484217;32;34731;-66
2023/10/21 10:55:15;;;;;;;11.98;2.30;;;;;;;24.45;45.53;98475.09;4469698;32;34793;-66
2023/10/21 10:57:43;;;;;;;7.90;2.08;;;;;;;24.44;45.57;98468.00;4468377;32;34074;-66
2023/10/21 11:00:18;;;;;;;7.75;2.20;;;;;;;24.45;45.47;98477.00;4468540;32;33643;-66
2023/10/21 11:02:49;;;;;;;9.73;2.08;;;;;;;24.43;45.45;98483.53;4467323;32;34113;-66
2023/10/21 11:05:20;;;;;;;7.82;2.75;;;;;;;24.42;45.29;98468.25;4468378;32;34914;-65
2023/10/21 11:07:52;;;;;;;12.05;2.87;;;;;;;24.42;45.27;98470.97;4468523;32;34878;-66
2023/10/21 11:10:20;;;;;;;8.57;2.22;;;;;;;24.43;45.24;98477.25;4467158;32;33349;-66
2023/10/21 11:12:51;;;;;;;10.35;2.62;;;;;;;24.42;45.13;98479.16;4468128;32;33842;-66
2023/10/21 11:15:20;;;;;;;4.60;1.80;;;;;;;24.41;45.11;98488.41;4468403;32;33904;-66
2023/10/21 11:17:47;;;;;;;8.30;2.37;;;;;;;24.40;45.03;98505.06;4468214;32;34632;-66
2023/10/21 11:20:15;;;;;;;6.15;1.80;;;;;;;24.40;45.01;98510.50;4468247;32;33720;-65
2023/10/21 11:22:43;;;;;;;5.93;1.83;;;;;;;24.40;44.96;98513.22;4468297;32;33654;-66
2023/10/21 11:25:10;;;;;;;10.43;2.10;;;;;;;24.39;44.93;98503.41;4480798;32;34040;-71
2023/10/21 11:27:38;;;;;;;5.28;1.75;;;;;;;24.40;44.95;98499.59;4483975;32;34851;-64
2023/10/21 11:30:09;;;;;;;4.68;1.80;;;;;;;24.41;45.17;98507.50;4469746;32;34398;-70
2023/10/21 11:32:37;;;;;;;7.28;1.55;;;;;;;24.43;45.27;98512.69;4482394;32;33811;-65
2023/10/21 11:35:09;;;;;;;7.82;2.30;;;;;;;24.42;45.33;98508.31;4483865;32;33961;-64
2023/10/21 11:37:39;;;;;;;7.45;2.00;;;;;;;24.40;45.50;98522.22;4482546;32;34146;-66